Time;durP1;ratioP1;P1;durP2;ratioP2;P2;SDS_P1;SDS_P2;PMS_P1;PMS_P2;Temp;Humidity;BMP_temperature;BMP_pressure;BME280_temperature;BME280_humidity;BME280_pressure;Samples;Min_cycle;Max_cycle;Signal;HPM_P1;HPM_P2
2022/04/24 08:17:45;;;;;;;;;;;;;;;9.68;81.21;95501.06;4264013;27;10395;-73
2022/04/24 08:19:47;;;;;;;;;;;;;;;9.87;80.90;95496.63;4209161;28;5723;-72
2022/04/24 08:21:48;;;;;;;;;;;;;;;9.95;80.42;95501.59;4192072;28;5646;-72
2022/04/24 08:23:50;;;;;;;;;;;;;;;9.88;80.59;95501.69;4213993;28;5788;-74
2022/04/24 08:25:54;;;;;;;;;;;;;;;10.02;80.61;95504.16;4212427;28;6015;-72
2022/04/24 08:27:56;;;;;;;;;;;;;;;10.09;80.10;95502.25;4204475;28;5772;-72
2022/04/24 08:29:58;;;;;;;;;;;;;;;10.13;79.97;95512.16;4211424;28;5875;-73
2022/04/24 08:31:59;;;;;;;;;;;;;;;10.14;79.70;95510.31;4210109;28;6987;-73
2022/04/24 08:34:01;;;;;;;;;;;;;;;10.17;79.78;95515.94;4189095;28;5808;-74
2022/04/24 08:36:05;;;;;;;;;;;;;;;10.17;79.96;95515.94;4204926;28;5730;-73
2022/04/24 08:38:07;;;;;;;;;;;;;;;10.15;79.59;95519.84;4210145;28;5796;-73
2022/04/24 08:40:12;;;;;;;;;;;;;;;10.22;79.34;95517.19;4206894;28;5818;-74
2022/04/24 08:42:18;;;;;;;;;;;;;;;10.19;79.69;95519.19;4207840;28;5784;-73
2022/04/24 08:44:20;;;;;;;;;;;;;;;10.12;80.02;95517.66;4203060;28;5788;-74
2022/04/24 08:46:23;;;;;;;;;;;;;;;10.07;80.18;95520.13;4200267;28;5821;-73
2022/04/24 08:48:25;;;;;;;;;;;;;;;10.20;79.83;95525.28;4209103;28;5746;-74
2022/04/24 08:50:31;;;;;;;;;;;;;;;10.20;79.63;95525.28;4202493;28;5804;-73
2022/04/24 08:52:33;;;;;;;;;;;;;;;10.19;79.13;95527.13;4204269;28;6537;-73
2022/04/24 08:54:40;;;;;;;;;;;;;;;10.29;78.66;95523.97;4209805;28;5800;-73
2022/04/24 08:56:42;;;;;;;;;;;;;;;10.31;78.39;95527.22;4210859;28;5836;-74
2022/04/24 08:58:44;;;;;;;;;;;;;;;10.35;79.09;95533.66;4210759;28;5804;-74
2022/04/24 09:00:46;;;;;;;;;;;;;;;10.39;78.78;95524.25;4202905;28;5809;-74
2022/04/24 09:02:49;;;;;;;;;;;;;;;10.33;78.40;95530.44;4209994;28;5807;-73
2022/04/24 09:04:53;;;;;;;;;;;;;;;10.43;78.14;95532.56;4204493;28;5799;-74
2022/04/24 09:06:57;;;;;;;;;;;;;;;10.40;78.11;95532.97;4210284;28;6460;-73
2022/04/24 09:09:05;;;;;;;;;;;;;;;10.41;77.73;95532.75;4209619;28;5813;-73
2022/04/24 09:11:07;;;;;;;;;;;;;;;10.41;78.01;95532.75;4209324;28;5738;-74
2022/04/24 09:13:09;;;;;;;;;;;;;;;10.28;78.85;95538.22;4199922;28;5805;-74
2022/04/24 09:15:15;;;;;;;;;;;;;;;10.44;78.57;95537.63;4210659;28;5792;-73
2022/04/24 09:17:25;;;;;;;;;;;;;;;10.48;78.43;95536.13;4204311;28;5784;-74
2022/04/24 09:19:27;;;;;;;;;;;;;;;10.05;80.45;95538.84;4198003;28;5758;-74
2022/04/24 09:21:28;;;;;;;;;;;;;;;10.36;79.18;95545.84;4198804;28;5776;-73
2022/04/24 09:23:37;;;;;;;;;;;;;;;10.38;78.81;95549.06;4199246;28;5784;-73
2022/04/24 09:25:40;;;;;;;;;;;;;;;10.42;78.66;95542.31;4199591;28;5106;-74
2022/04/24 09:27:42;;;;;;;;;;;;;;;10.55;78.88;95559.03;4198496;28;5814;-74
2022/04/24 09:29:55;;;;;;;;;;;;;;;10.60;78.11;95556.53;4199025;28;5792;-74
2022/04/24 09:31:56;;;;;;;;;;;;;;;10.69;78.35;95555.19;4190647;28;5809;-74
2022/04/24 09:33:59;;;;;;;;;;;;;;;10.73;78.00;95561.63;4190705;28;5800;-74
2022/04/24 09:36:00;;;;;;;;;;;;;;;10.71;77.65;95559.22;4193205;28;5837;-74
2022/04/24 09:38:13;;;;;;;;;;;;;;;10.78;77.81;95553.84;4186094;28;5787;-74
2022/04/24 09:40:16;;;;;;;;;;;;;;;10.80;76.83;95557.06;4197915;28;5718;-74
2022/04/24 09:42:19;;;;;;;;;;;;;;;10.86;77.04;95566.72;4197739;28;5795;-74
2022/04/24 09:44:21;;;;;;;;;;;;;;;10.93;76.77;95570.09;4191488;28;5795;-74
2022/04/24 09:46:29;;;;;;;;;;;;;;;10.89;76.32;95568.94;4183443;28;5862;-74
2022/04/24 09:48:31;;;;;;;;;;;;;;;10.99;76.94;95565.78;4183231;28;5883;-74
2022/04/24 09:50:34;;;;;;;;;;;;;;;10.92;76.71;95565.03;4187809;28;5781;-74
2022/04/24 09:52:38;;;;;;;;;;;;;;;10.97;76.27;95565.16;4196663;28;5762;-74
2022/04/24 09:54:50;;;;;;;;;;;;;;;10.89;76.48;95568.94;4199061;28;5800;-74
2022/04/24 09:56:53;;;;;;;;;;;;;;;10.89;76.14;95576.88;4198611;28;6467;-74
2022/04/24 09:58:57;;;;;;;;;;;;;;;10.94;76.25;95569.06;4198065;28;6426;-68
2022/04/24 10:00:58;;;;;;;;;;;;;;;10.71;75.72;95575.06;4195846;28;5809;-68
2022/04/24 10:03:02;;;;;;;;;;;;;;;10.73;76.11;95574.84;4194524;28;5776;-75
2022/04/24 10:05:05;;;;;;;;;;;;;;;10.78;76.35;95582.94;4197074;28;5745;-73
2022/04/24 10:07:10;;;;;;;;;;;;;;;10.63;75.41;95582.50;4223252;28;5721;-72
2022/04/24 10:09:13;;;;;;;;;;;;;;;10.85;75.27;95582.81;4190366;28;5128;-72
2022/04/24 10:11:15;;;;;;;;;;;;;;;11.02;75.59;95581.97;4192548;28;5791;-72
2022/04/24 10:13:18;;;;;;;;;;;;;;;10.98;74.63;95580.00;4186597;28;5784;-72
2022/04/24 10:15:23;;;;;;;;;;;;;;;11.19;73.85;95582.13;4186793;28;5713;-72
2022/04/24 10:17:27;;;;;;;;;;;;;;;11.05;74.14;95584.16;4192039;28;6754;-72
2022/04/24 10:19:43;;;;;;;;;;;;;;;11.17;74.57;95570.97;4195674;28;5819;-72
2022/04/24 10:22:02;;;;;;;;;;;;;;;11.25;73.54;95586.53;4191194;28;5889;-72
2022/04/24 10:24:11;;;;;;;;;;;;;;;11.08;73.73;95586.34;4187298;28;5889;-72
2022/04/24 10:26:20;;;;;;;;;;;;;;;11.25;72.93;95581.25;4218693;28;5807;-72
2022/04/24 10:28:22;;;;;;;;;;;;;;;11.32;73.42;95591.72;4194809;28;5129;-72
2022/04/24 10:30:25;;;;;;;;;;;;;;;11.29;72.79;95584.22;4163680;28;5775;-72
2022/04/24 10:32:30;;;;;;;;;;;;;;;11.29;72.79;95592.16;4187121;28;5915;-71
2022/04/24 10:34:39;;;;;;;;;;;;;;;11.19;72.72;95594.56;4179895;28;7097;-71
2022/04/24 10:36:57;;;;;;;;;;;;;;;11.19;73.35;95587.44;4190822;28;5803;-73
2022/04/24 10:39:00;;;;;;;;;;;;;;;10.90;73.90;95590.91;4195680;28;5722;-71
2022/04/24 10:41:24;;;;;;;;;;;;;;;11.28;73.29;95590.56;4192508;28;5820;-71
2022/04/24 10:43:35;;;;;;;;;;;;;;;11.40;73.03;95594.03;4186389;28;5853;-70
2022/04/24 10:45:46;;;;;;;;;;;;;;;11.42;73.54;95596.44;4185888;28;5820;-70
2022/04/24 10:47:50;;;;;;;;;;;;;;;11.47;72.99;95610.63;4183877;28;5813;-72
2022/04/24 10:50:05;;;;;;;;;;;;;;;11.45;72.68;95606.59;4188947;28;5912;-72
2022/04/24 10:52:08;;;;;;;;;;;;;;;11.53;72.77;95615.00;4184894;28;5997;-72
2022/04/24 10:54:13;;;;;;;;;;;;;;;11.52;72.35;95617.88;4189614;28;5765;-72
2022/04/24 10:56:14;;;;;;;;;;;;;;;11.54;72.26;95619.25;4211611;28;5117;-72
2022/04/24 10:58:27;;;;;;;;;;;;;;;11.57;71.87;95620.66;4224641;28;5850;-71
2022/04/24 11:00:34;;;;;;;;;;;;;;;11.68;72.02;95622.53;4191291;28;5355;-71
2022/04/24 11:02:36;;;;;;;;;;;;;;;11.71;71.79;95621.25;4185119;28;7779;-71
2022/04/24 11:04:41;;;;;;;;;;;;;;;11.38;71.31;95614.63;4187904;28;5781;-72
2022/04/24 11:07:04;;;;;;;;;;;;;;;11.48;71.79;95625.47;4185990;28;5896;-72
2022/04/24 11:09:18;;;;;;;;;;;;;;;11.61;71.05;95619.97;4199992;28;5853;-73
2022/04/24 11:11:21;;;;;;;;;;;;;;;11.59;71.28;95619.41;4186282;28;5962;-68
2022/04/24 11:13:26;;;;;;;;;;;;;;;11.59;71.12;95624.69;4188107;28;5899;-70
2022/04/24 11:15:28;;;;;;;;;;;;;;;11.55;71.73;95623.53;4185688;28;5810;-69
2022/04/24 11:17:30;;;;;;;;;;;;;;;11.48;71.46;95622.03;4187223;28;5820;-69
2022/04/24 11:19:35;;;;;;;;;;;;;;;11.49;70.98;95619.13;4186122;28;5788;-69
2022/04/24 11:21:40;;;;;;;;;;;;;;;11.45;71.21;95623.28;4185855;28;5947;-69
2022/04/24 11:23:43;;;;;;;;;;;;;;;11.52;71.79;95625.81;4189594;28;5818;-70
2022/04/24 11:25:45;;;;;;;;;;;;;;;11.62;71.33;95623.41;4192620;28;5893;-71
2022/04/24 11:27:51;;;;;;;;;;;;;;;11.65;71.13;95625.59;4183413;28;5817;-71
2022/04/24 11:29:53;;;;;;;;;;;;;;;11.72;71.03;95628.97;4186945;28;5836;-71
2022/04/24 11:31:55;;;;;;;;;;;;;;;11.77;71.01;95626.41;4189840;28;5810;-72
2022/04/24 11:34:00;;;;;;;;;;;;;;;11.85;70.86;95627.97;4194572;28;6736;-71
2022/04/24 11:36:04;;;;;;;;;;;;;;;11.79;70.45;95624.41;4193952;28;5917;-71
2022/04/24 11:38:08;;;;;;;;;;;;;;;11.78;70.52;95637.81;4184897;28;5817;-72
2022/04/24 11:40:10;;;;;;;;;;;;;;;11.82;70.23;95636.38;4186467;28;5862;-73
2022/04/24 11:42:32;;;;;;;;;;;;;;;11.89;70.01;95629.94;4189069;28;7974;-73
2022/04/24 11:51:40;;;;;;;;;;;;;;;11.61;70.46;95638.50;4185522;28;5860;-69
2022/04/24 11:53:46;;;;;;;;;;;;;;;11.80;69.88;95635.81;4194364;28;5791;-69
2022/04/24 11:56:02;;;;;;;;;;;;;;;12.00;69.62;95636.25;4192845;28;5836;-73
2022/04/24 11:58:08;;;;;;;;;;;;;;;12.07;69.20;95636.97;4186778;28;5893;-74
2022/04/24 12:00:18;;;;;;;;;;;;;;;12.03;69.36;95637.66;4187049;28;5829;-70
2022/04/24 12:02:24;;;;;;;;;;;;;;;12.13;68.64;95638.69;4184407;28;5859;-71
2022/04/24 12:04:31;;;;;;;;;;;;;;;12.22;68.78;95633.84;4187231;28;6062;-70
2022/04/24 12:06:33;;;;;;;;;;;;;;;12.28;68.07;95637.41;4187760;28;5937;-70
2022/04/24 12:08:50;;;;;;;;;;;;;;;12.20;67.04;95642.03;4191899;28;5786;-71
2022/04/24 12:10:51;;;;;;;;;;;;;;;12.19;67.73;95644.91;4191594;28;5788;-71
2022/04/24 12:12:54;;;;;;;;;;;;;;;12.18;67.74;95649.41;4187933;28;5809;-71
2022/04/24 12:14:56;;;;;;;;;;;;;;;12.26;68.46;95642.16;4182882;28;5803;-71
2022/04/24 12:17:02;;;;;;;;;;;;;;;12.32;67.90;95649.16;4184270;28;5842;-71
2022/04/24 12:19:05;;;;;;;;;;;;;;;12.34;67.72;95645.22;4184861;28;5819;-71
2022/04/24 12:21:18;;;;;;;;;;;;;;;12.20;67.76;95647.31;4180585;28;5909;-68
2022/04/24 12:23:20;;;;;;;;;;;;;;;12.10;66.97;95647.09;4181857;28;5825;-67
2022/04/24 12:25:22;;;;;;;;;;;;;;;12.27;67.51;95646.41;4183563;28;5900;-66
2022/04/24 12:27:55;;;;;;;;;;;;;;;12.38;66.85;95653.56;4184946;28;6517;-66
2022/04/24 12:29:57;;;;;;;;;;;;;;;12.40;66.68;95654.13;4186035;28;6502;-71
2022/04/24 12:32:06;;;;;;;;;;;;;;;12.36;66.74;95652.97;4185509;28;6481;-71
2022/04/24 12:34:14;;;;;;;;;;;;;;;12.39;66.94;95655.16;4184921;28;5841;-72
2022/04/24 12:36:16;;;;;;;;;;;;;;;12.12;66.16;95660.94;4183493;28;5805;-74
2022/04/24 12:38:19;;;;;;;;;;;;;;;12.26;66.52;95661.50;4183572;28;5845;-72
2022/04/24 12:40:21;;;;;;;;;;;;;;;12.06;67.45;95661.84;4185541;28;5825;-77
2022/04/24 12:42:25;;;;;;;;;;;;;;;12.11;67.87;95661.94;4183833;28;5784;-77
2022/04/24 12:44:26;;;;;;;;;;;;;;;12.36;67.18;95660.94;4191282;28;5701;-78
2022/04/24 12:46:35;;;;;;;;;;;;;;;12.41;67.31;95666.31;4189043;28;5839;-78
2022/04/24 12:48:52;;;;;;;;;;;;;;;12.33;66.47;95667.47;4195807;28;5772;-77
2022/04/24 12:50:54;;;;;;;;;;;;;;;12.24;67.36;95669.69;4192412;28;6588;-76
2022/04/24 12:52:55;;;;;;;;;;;;;;;12.36;67.19;95672.34;4203568;28;5734;-75
2022/04/24 12:55:00;;;;;;;;;;;;;;;12.41;67.39;95668.97;4188261;28;5701;-76
2022/04/24 12:57:07;;;;;;;;;;;;;;;12.40;66.22;95673.47;4187199;28;5814;-75
2022/04/24 12:59:08;;;;;;;;;;;;;;;12.37;67.23;95670.50;4186520;28;5833;-74
2022/04/24 13:01:13;;;;;;;;;;;;;;;12.36;66.68;95672.34;4186386;28;5950;-75
2022/04/24 13:03:15;;;;;;;;;;;;;;;12.47;66.35;95668.88;4189986;28;5795;-71
2022/04/24 13:05:17;;;;;;;;;;;;;;;12.45;66.75;95670.13;4187077;28;5813;-70
2022/04/24 13:07:20;;;;;;;;;;;;;;;12.62;66.21;95667.56;4185694;28;5884;-71
2022/04/24 13:09:22;;;;;;;;;;;;;;;12.62;66.54;95672.88;4184170;28;5853;-70
2022/04/24 13:11:24;;;;;;;;;;;;;;;12.42;66.51;95662.63;4195184;28;5801;-70
2022/04/24 13:13:28;;;;;;;;;;;;;;;12.48;65.23;95664.38;4187806;28;5803;-66
2022/04/24 13:15:32;;;;;;;;;;;;;;;12.65;65.88;95664.44;4186986;28;5931;-66
2022/04/24 13:19:54;;;;;;;;;;;;;;;12.67;65.85;95663.19;4187216;28;5833;-68
2022/04/24 13:21:56;;;;;;;;;;;;;;;12.56;66.55;95657.88;4186698;28;7522;-68
2022/04/24 13:23:58;;;;;;;;;;;;;;;12.59;66.84;95668.84;4189947;28;5889;-70
2022/04/24 13:26:02;;;;;;;;;;;;;;;12.49;67.20;95660.69;4188382;28;5853;-69
2022/04/24 13:28:04;;;;;;;;;;;;;;;12.62;67.95;95665.72;4186732;28;5808;-68
2022/04/24 13:30:08;;;;;;;;;;;;;;;12.77;67.65;95676.66;4184970;28;5808;-69
2022/04/24 13:32:09;;;;;;;;;;;;;;;12.81;66.53;95663.75;4190642;28;5929;-67
2022/04/24 13:34:11;;;;;;;;;;;;;;;12.46;67.85;95661.97;4186070;28;5833;-68
2022/04/24 13:36:14;;;;;;;;;;;;;;;12.67;66.40;95673.78;4185083;28;5887;-67
2022/04/24 13:38:18;;;;;;;;;;;;;;;12.62;65.99;95668.38;4187489;28;5803;-68
2022/04/24 13:40:21;;;;;;;;;;;;;;;12.76;66.08;95674.22;4186560;28;6010;-69
2022/04/24 13:42:23;;;;;;;;;;;;;;;12.76;65.84;95672.38;4189465;28;5905;-68
2022/04/24 13:44:24;;;;;;;;;;;;;;;12.76;66.38;95671.59;4189472;28;6771;-68
2022/04/24 13:46:29;;;;;;;;;;;;;;;12.75;66.04;95676.09;4190757;28;5793;-67
2022/04/24 13:48:32;;;;;;;;;;;;;;;12.85;66.17;95683.44;4184994;28;5828;-67
2022/04/24 13:50:35;;;;;;;;;;;;;;;12.81;65.65;95680.47;4195627;28;5745;-67
2022/04/24 13:52:38;;;;;;;;;;;;;;;12.76;66.23;95683.00;4195862;28;5788;-66
2022/04/24 13:54:40;;;;;;;;;;;;;;;12.67;66.59;95680.94;4187875;28;5821;-67
2022/04/24 13:56:42;;;;;;;;;;;;;;;12.59;66.36;95676.81;4186054;28;5814;-67
2022/04/24 13:58:44;;;;;;;;;;;;;;;12.54;66.53;95676.69;4192609;28;5866;-66
2022/04/24 14:00:46;;;;;;;;;;;;;;;12.50;67.19;95678.19;4186462;28;5845;-67
2022/04/24 14:02:49;;;;;;;;;;;;;;;12.47;66.92;95678.66;4185835;28;5891;-67
2022/04/24 14:04:51;;;;;;;;;;;;;;;12.47;67.22;95678.66;4187366;28;5817;-68
2022/04/24 14:06:53;;;;;;;;;;;;;;;12.47;67.55;95683.97;4176103;28;5772;-66
2022/04/24 14:08:55;;;;;;;;;;;;;;;12.41;67.48;95685.69;4187079;28;5848;-67
2022/04/24 14:11:00;;;;;;;;;;;;;;;12.48;67.60;95685.59;4183791;28;6461;-67
2022/04/24 14:13:02;;;;;;;;;;;;;;;12.50;67.87;95683.50;4171008;28;5741;-67
2022/04/24 14:15:04;;;;;;;;;;;;;;;12.46;66.94;95687.66;4185435;28;5817;-67
2022/04/24 14:17:06;;;;;;;;;;;;;;;12.40;67.87;95688.56;4185803;28;5792;-68
2022/04/24 14:19:07;;;;;;;;;;;;;;;12.34;68.19;95700.09;4185144;28;5880;-68
2022/04/24 14:21:09;;;;;;;;;;;;;;;12.24;68.94;95698.84;4200690;28;5727;-68
2022/04/24 14:23:11;;;;;;;;;;;;;;;12.23;70.02;95702.53;4186568;28;5853;-67
2022/04/24 14:25:12;;;;;;;;;;;;;;;12.16;71.08;95708.97;4188147;28;5754;-67
2022/04/24 14:27:24;;;;;;;;;;;;;;;12.17;71.06;95706.09;4216547;28;5707;-67
2022/04/24 14:29:26;;;;;;;;;;;;;;;12.11;71.18;95712.28;4185499;28;5880;-68
2022/04/24 14:31:28;;;;;;;;;;;;;;;12.12;71.19;95719.22;4182140;28;5102;-67
2022/04/24 14:33:30;;;;;;;;;;;;;;;12.11;72.21;95712.28;4185764;28;5658;-67
2022/04/24 14:35:32;;;;;;;;;;;;;;;12.09;72.86;95719.66;4214949;28;5742;-66
2022/04/24 14:37:34;;;;;;;;;;;;;;;11.90;73.74;95721.59;4184911;28;5884;-66
2022/04/24 14:39:37;;;;;;;;;;;;;;;12.02;73.79;95726.13;4182660;28;5899;-66
2022/04/24 14:41:43;;;;;;;;;;;;;;;12.09;73.60;95735.53;4185384;28;5828;-66
2022/04/24 14:43:44;;;;;;;;;;;;;;;12.11;73.46;95736.13;4184832;28;5723;-66
2022/04/24 14:57:28;;;;;;;;;;;;;;;12.06;74.61;95749.25;4187591;28;5809;-66
2022/04/24 14:59:31;;;;;;;;;;;;;;;12.04;74.63;95751.34;4186221;28;5796;-66
2022/04/24 15:01:33;;;;;;;;;;;;;;;12.04;74.22;95753.97;4186049;28;5810;-66
2022/04/24 15:03:35;;;;;;;;;;;;;;;12.04;74.95;95756.63;4185809;28;5797;-66
2022/04/24 15:05:38;;;;;;;;;;;;;;;11.99;74.42;95756.50;4183156;28;5813;-66
2022/04/24 15:07:40;;;;;;;;;;;;;;;12.00;75.71;95762.59;4185043;28;5876;-66
2022/04/24 15:09:42;;;;;;;;;;;;;;;12.04;74.75;95758.47;4184675;28;5115;-66
2022/04/24 15:11:44;;;;;;;;;;;;;;;12.00;74.55;95762.59;4217118;28;5734;-66
2022/04/24 15:13:46;;;;;;;;;;;;;;;11.95;75.01;95766.75;4186099;28;5844;-65
2022/04/24 15:15:48;;;;;;;;;;;;;;;11.87;74.50;95774.19;4187520;28;5798;-65
2022/04/24 15:17:49;;;;;;;;;;;;;;;11.83;74.72;95767.75;4188592;28;5809;-65
2022/04/24 15:19:52;;;;;;;;;;;;;;;11.75;75.48;95773.31;4188452;28;5777;-67
2022/04/24 15:21:55;;;;;;;;;;;;;;;11.74;76.27;95777.00;4180421;28;5784;-66
2022/04/24 15:24:05;;;;;;;;;;;;;;;11.83;75.44;95773.03;4191752;28;5864;-65
2022/04/24 15:26:07;;;;;;;;;;;;;;;11.84;75.70;95778.09;4189047;28;5792;-65
2022/04/24 15:28:09;;;;;;;;;;;;;;;11.88;75.82;95773.97;4186018;28;5908;-65
2022/04/24 15:30:11;;;;;;;;;;;;;;;11.95;76.59;95776.53;4185967;28;5853;-65
2022/04/24 15:32:13;;;;;;;;;;;;;;;12.04;75.72;95774.38;4184960;28;5804;-66
2022/04/24 15:34:15;;;;;;;;;;;;;;;12.01;76.40;95778.28;4185382;28;5772;-66
2022/04/24 15:36:17;;;;;;;;;;;;;;;12.06;76.08;95773.09;4185152;28;5833;-66
2022/04/24 15:38:19;;;;;;;;;;;;;;;12.13;75.64;95779.13;4190093;28;5816;-66
2022/04/24 15:40:20;;;;;;;;;;;;;;;12.15;76.21;95771.75;4185315;28;5809;-66
2022/04/24 15:42:24;;;;;;;;;;;;;;;12.15;77.19;95781.53;4182842;28;5898;-66
2022/04/24 15:44:26;;;;;;;;;;;;;;;12.16;75.98;95778.66;4186200;28;5885;-66
2022/04/24 15:46:30;;;;;;;;;;;;;;;12.21;76.30;95775.31;4204656;28;5770;-66
2022/04/24 15:48:32;;;;;;;;;;;;;;;12.23;76.46;95783.84;4188169;28;5822;-66
2022/04/24 15:50:34;;;;;;;;;;;;;;;12.21;76.41;95781.41;4192693;28;5806;-66
2022/04/24 15:52:36;;;;;;;;;;;;;;;12.24;76.31;95783.63;4187756;28;5905;-65
2022/04/24 15:54:38;;;;;;;;;;;;;;;12.27;76.53;95778.91;4193961;28;5784;-65
2022/04/24 15:56:40;;;;;;;;;;;;;;;12.08;79.15;95786.13;4188621;28;5796;-66
2022/04/24 15:58:41;;;;;;;;;;;;;;;12.03;78.40;95786.81;4183401;28;5905;-65
2022/04/24 16:00:43;;;;;;;;;;;;;;;12.19;77.77;95778.19;4184404;28;5784;-66
2022/04/24 16:02:44;;;;;;;;;;;;;;;12.27;77.07;95777.06;4183278;28;5092;-66
2022/04/24 16:04:46;;;;;;;;;;;;;;;12.27;77.03;95784.22;4182510;28;6113;-65
2022/04/24 16:06:48;;;;;;;;;;;;;;;12.26;77.37;95785.25;4188854;28;8484;-65
2022/04/24 16:08:50;;;;;;;;;;;;;;;12.29;77.25;95788.25;4191966;28;5919;-66
2022/04/24 16:10:52;;;;;;;;;;;;;;;12.26;77.00;95793.19;4181547;28;5745;-66
2022/04/24 16:12:54;;;;;;;;;;;;;;;12.26;76.60;95787.91;4190991;28;5796;-66
2022/04/24 16:14:55;;;;;;;;;;;;;;;12.27;76.80;95790.31;4197248;28;5813;-66
2022/04/24 16:16:57;;;;;;;;;;;;;;;12.27;76.78;95792.97;4191472;28;5816;-65
2022/04/24 16:18:59;;;;;;;;;;;;;;;12.28;76.45;95796.41;4194897;28;6526;-65
2022/04/24 16:21:02;;;;;;;;;;;;;;;12.26;75.99;95799.31;4193822;28;5868;-65
2022/04/24 16:23:04;;;;;;;;;;;;;;;12.24;75.94;95796.88;4188716;28;5796;-66
2022/04/24 16:25:06;;;;;;;;;;;;;;;12.23;76.19;95797.09;4186907;28;5788;-65
2022/04/24 16:27:07;;;;;;;;;;;;;;;12.19;76.40;95802.03;4195723;28;6518;-66
2022/04/24 16:29:55;;;;;;;;;;;;;;;12.18;76.44;95804.91;4191198;28;5929;-66
2022/04/24 16:31:33;;;;;;;;;;;;;;;12.17;76.40;95804.09;4187633;28;5794;-66
2022/04/24 16:33:36;;;;;;;;;;;;;;;12.18;76.89;95810.22;4186869;28;5807;-65
2022/04/24 16:35:38;;;;;;;;;;;;;;;12.22;76.75;95803.41;4198707;28;5800;-66
2022/04/24 16:37:40;;;;;;;;;;;;;;;12.23;76.34;95810.34;4191444;28;5813;-66
2022/04/24 16:39:42;;;;;;;;;;;;;;;12.24;76.41;95810.13;4184741;28;6420;-66
2022/04/24 16:41:44;;;;;;;;;;;;;;;12.07;79.63;95817.09;4187208;28;5809;-66
2022/04/24 16:43:45;;;;;;;;;;;;;;;12.16;77.64;95820.25;4199727;28;5804;-66
2022/04/24 16:45:47;;;;;;;;;;;;;;;12.21;77.03;95818.50;4192818;28;5848;-66
2022/04/24 16:47:49;;;;;;;;;;;;;;;12.17;76.64;95817.34;4194696;28;5797;-66
2022/04/24 16:49:52;;;;;;;;;;;;;;;11.95;77.34;95808.31;4187460;28;5810;-65
2022/04/24 16:58:57;;;;;;;;;;;;;;;12.05;76.71;95819.16;4194737;28;5976;-66
2022/04/24 17:00:59;;;;;;;;;;;;;;;11.96;76.21;95823.16;4198948;28;5841;-66
2022/04/24 17:03:06;;;;;;;;;;;;;;;12.11;76.19;95822.75;4193416;28;5738;-74
2022/04/24 17:05:08;;;;;;;;;;;;;;;12.19;75.66;95819.78;4197051;28;5205;-75
2022/04/24 17:07:11;;;;;;;;;;;;;;;12.24;75.63;95841.94;4186651;28;5826;-76
2022/04/24 17:09:13;;;;;;;;;;;;;;;12.24;76.16;95844.56;4193678;28;5921;-75
2022/04/24 17:11:15;;;;;;;;;;;;;;;12.27;76.72;95843.31;4195181;28;5126;-77
2022/04/24 17:13:19;;;;;;;;;;;;;;;12.28;76.23;95852.06;4190314;28;5888;-68
2022/04/24 17:15:20;;;;;;;;;;;;;;;12.29;75.99;95848.38;4184967;28;6511;-68
2022/04/24 17:17:23;;;;;;;;;;;;;;;12.31;76.06;95848.97;4183695;28;5781;-70
2022/04/24 17:19:25;;;;;;;;;;;;;;;12.34;76.05;95851.16;4182443;28;5825;-67
2022/04/24 17:21:27;;;;;;;;;;;;;;;12.28;76.46;95846.75;4188410;28;5930;-66
2022/04/24 17:23:28;;;;;;;;;;;;;;;12.07;79.31;95846.25;4183001;28;5817;-67
2022/04/24 17:25:30;;;;;;;;;;;;;;;12.05;78.89;95850.16;4191552;28;5753;-68
2022/04/24 17:27:32;;;;;;;;;;;;;;;11.99;77.93;95856.34;4197578;28;5788;-70
2022/04/24 17:29:34;;;;;;;;;;;;;;;12.02;78.08;95851.41;4187724;28;5880;-67
2022/04/24 17:31:36;;;;;;;;;;;;;;;11.96;77.69;95857.59;4182619;28;5849;-78
2022/04/24 17:33:38;;;;;;;;;;;;;;;11.75;78.90;95860.69;4186433;28;5807;-76
2022/04/24 17:35:40;;;;;;;;;;;;;;;11.58;80.38;95861.31;4183971;28;5808;-66
2022/04/24 17:37:42;;;;;;;;;;;;;;;11.61;80.01;95858.22;4186457;28;5937;-67
2022/04/24 17:39:43;;;;;;;;;;;;;;;11.81;78.51;95865.16;4185410;28;7415;-72
2022/04/24 17:41:45;;;;;;;;;;;;;;;11.92;78.93;95861.75;4187963;28;5874;-72
2022/04/24 17:43:47;;;;;;;;;;;;;;;11.85;80.61;95859.16;4186934;28;5876;-67
2022/04/24 17:45:49;;;;;;;;;;;;;;;11.82;78.78;95861.47;4218824;28;6437;-64
2022/04/24 17:47:52;;;;;;;;;;;;;;;11.93;78.69;95868.66;4186928;28;5973;-66
2022/04/24 17:49:54;;;;;;;;;;;;;;;11.76;79.95;95870.25;4189746;28;5808;-66
2022/04/24 17:51:56;;;;;;;;;;;;;;;11.81;79.53;95875.72;4186086;28;5818;-71
2022/04/24 17:53:59;;;;;;;;;;;;;;;11.86;77.30;95867.91;4189138;28;5825;-69
2022/04/24 17:56:01;;;;;;;;;;;;;;;11.80;79.35;95876.75;4187874;28;5920;-67
2022/04/24 17:58:05;;;;;;;;;;;;;;;11.84;79.17;95876.09;4203773;28;5882;-64
2022/04/24 18:00:09;;;;;;;;;;;;;;;12.02;78.29;95882.41;4182121;28;5921;-65
2022/04/24 18:02:11;;;;;;;;;;;;;;;12.09;77.90;95881.25;4184953;28;5792;-69
2022/04/24 18:04:13;;;;;;;;;;;;;;;12.15;78.35;95887.50;4187801;28;5808;-66
2022/04/24 18:06:16;;;;;;;;;;;;;;;12.10;78.60;95884.72;4185291;28;5854;-72
2022/04/24 18:08:20;;;;;;;;;;;;;;;12.15;75.77;95888.31;4188480;28;5820;-66
2022/04/24 18:10:22;;;;;;;;;;;;;;;12.15;77.01;95885.66;4187012;28;5805;-68
2022/04/24 18:12:25;;;;;;;;;;;;;;;12.20;77.56;95892.94;4186108;28;5813;-67
2022/04/24 18:14:27;;;;;;;;;;;;;;;12.17;78.10;95890.75;4186901;28;5865;-65
2022/04/24 18:16:30;;;;;;;;;;;;;;;12.17;77.39;95891.56;4184893;28;5924;-66
2022/04/24 18:18:34;;;;;;;;;;;;;;;12.23;77.04;95897.78;4185925;28;5796;-67
2022/04/24 18:20:40;;;;;;;;;;;;;;;12.28;76.87;95892.63;4217669;28;5715;-69
2022/04/24 18:22:42;;;;;;;;;;;;;;;12.28;77.18;95903.22;4189751;28;5912;-69
2022/04/24 18:24:45;;;;;;;;;;;;;;;12.30;76.22;95898.50;4183206;28;5095;-68
2022/04/24 18:26:47;;;;;;;;;;;;;;;12.00;76.57;95909.09;4187583;28;5855;-67
2022/04/24 18:28:51;;;;;;;;;;;;;;;11.90;78.99;95908.84;4194533;28;5812;-63
2022/04/24 18:30:55;;;;;;;;;;;;;;;11.82;80.52;95914.41;4186982;28;5813;-64
2022/04/24 18:32:57;;;;;;;;;;;;;;;11.71;81.04;95917.78;4195720;28;5844;-65
2022/04/24 18:35:00;;;;;;;;;;;;;;;11.54;82.55;95913.06;4199077;28;5824;-64
2022/04/24 18:39:31;;;;;;;;;;;;;;;11.75;80.82;95918.94;4198551;28;5795;-68
2022/04/24 18:41:34;;;;;;;;;;;;;;;11.84;80.22;95922.94;4192160;28;6144;-67
2022/04/24 18:43:37;;;;;;;;;;;;;;;11.95;79.62;95930.16;4185829;28;5802;-66
2022/04/24 18:45:39;;;;;;;;;;;;;;;12.02;79.64;95927.44;4184143;28;5841;-67
2022/04/24 18:47:40;;;;;;;;;;;;;;;11.63;81.43;95929.47;4183728;28;5815;-61
2022/04/24 18:49:42;;;;;;;;;;;;;;;11.47;81.59;95938.81;4192828;28;5639;-69
2022/04/24 18:51:43;;;;;;;;;;;;;;;11.30;81.16;95949.13;4195655;28;5900;-73
2022/04/24 18:53:45;;;;;;;;;;;;;;;11.14;81.53;95941.75;4189394;28;5730;-73
2022/04/24 18:55:47;;;;;;;;;;;;;;;11.16;81.29;95946.81;4190639;28;5792;-73
2022/04/24 18:57:49;;;;;;;;;;;;;;;11.11;81.38;95947.50;4191990;28;5812;-73
2022/04/24 18:59:57;;;;;;;;;;;;;;;11.12;81.24;95951.75;4189393;28;5817;-74
2022/04/24 19:01:59;;;;;;;;;;;;;;;11.18;81.76;95956.16;4188874;28;5877;-74
2022/04/24 19:08:41;;;;;;;;;;;;;;;11.21;81.15;95960.19;4192945;28;5804;-74
2022/04/24 19:13:05;;;;;;;;;;;;;;;11.17;81.56;95969.59;4188110;28;5813;-74
2022/04/24 19:15:07;;;;;;;;;;;;;;;11.17;81.35;95969.59;4191750;28;5807;-74
2022/04/24 19:17:09;;;;;;;;;;;;;;;11.15;81.96;95972.47;4191611;28;5784;-74
2022/04/24 19:19:11;;;;;;;;;;;;;;;11.19;81.41;95975.50;4197225;28;5795;-69
2022/04/24 19:21:12;;;;;;;;;;;;;;;11.20;81.92;95977.09;4193243;28;5729;-70
2022/04/24 19:23:14;;;;;;;;;;;;;;;11.26;82.36;95978.91;4192498;28;5738;-69
2022/04/24 19:25:17;;;;;;;;;;;;;;;11.35;81.34;95983.69;4196412;28;5801;-65
2022/04/24 19:27:19;;;;;;;;;;;;;;;11.40;81.67;95984.88;4191410;28;5804;-69
2022/04/24 19:29:21;;;;;;;;;;;;;;;11.30;82.13;95980.06;4190021;28;5792;-69
2022/04/24 19:31:22;;;;;;;;;;;;;;;11.24;82.53;95986.25;4189237;28;5852;-67
2022/04/24 19:33:25;;;;;;;;;;;;;;;11.26;82.17;95981.53;4187557;28;5822;-68
2022/04/24 19:35:26;;;;;;;;;;;;;;;11.30;82.26;95990.66;4189475;28;5829;-68
2022/04/24 19:37:28;;;;;;;;;;;;;;;11.47;80.78;95994.38;4193053;28;5831;-68
2022/04/24 19:39:29;;;;;;;;;;;;;;;11.47;81.17;95981.16;4189564;28;5822;-67
2022/04/24 19:41:32;;;;;;;;;;;;;;;11.38;81.91;95982.44;4196392;28;5930;-68
2022/04/24 19:43:34;;;;;;;;;;;;;;;11.24;82.72;95980.97;4194342;28;5737;-66
2022/04/24 19:45:36;;;;;;;;;;;;;;;11.32;82.73;95984.13;4196102;28;5762;-67
2022/04/24 19:49:59;;;;;;;;;;;;;;;11.21;82.97;95987.50;4197046;28;5896;-67